createdAt,value
2022-08-26T00:01:42.042Z,69.10
2022-08-26T00:04:12.008Z,69.40
2022-08-26T00:06:42.718Z,69.80
2022-08-26T00:09:13.614Z,69.70
2022-08-26T00:11:44.469Z,69.20
2022-08-26T00:14:12.216Z,69.00
2022-08-26T00:16:40.973Z,68.80
2022-08-26T00:19:14.510Z,68.70
2022-08-26T00:21:41.493Z,68.50
2022-08-26T00:24:08.211Z,69.10
2022-08-26T00:26:35.070Z,69.70
2022-08-26T00:29:01.928Z,69.10
2022-08-26T00:31:31.136Z,69.70
2022-08-26T00:33:58.858Z,69.80
2022-08-26T00:36:29.741Z,69.60
2022-08-26T00:38:58.058Z,69.90
2022-08-26T00:41:24.785Z,69.90
2022-08-26T00:43:52.775Z,69.50
2022-08-26T00:46:23.474Z,69.30
2022-08-26T00:48:54.072Z,69.00
2022-08-26T00:51:29.727Z,68.70
2022-08-26T00:54:05.541Z,68.80
2022-08-26T00:56:40.553Z,69.20
2022-08-26T00:59:11.483Z,69.20
2022-08-26T01:01:41.207Z,70.10
2022-08-26T01:04:09.515Z,70.80
2022-08-26T01:06:36.600Z,71.30
2022-08-26T01:09:03.950Z,71.20
2022-08-26T01:11:31.954Z,70.80
2022-08-26T01:14:02.745Z,71.20
2022-08-26T01:16:30.320Z,71.10
2022-08-26T01:19:03.642Z,70.40
2022-08-26T01:21:41.232Z,70.00
2022-08-26T01:24:10.302Z,69.80
2022-08-26T01:26:43.140Z,70.00
2022-08-26T01:29:20.210Z,68.60
2022-08-26T01:31:51.166Z,69.10
2022-08-26T01:34:27.317Z,70.10
2022-08-26T01:37:25.803Z,70.50
2022-08-26T01:39:54.455Z,70.60
2022-08-26T01:42:23.870Z,70.50
2022-08-26T01:44:55.813Z,70.70
2022-08-26T01:47:26.332Z,70.60
2022-08-26T01:49:56.294Z,71.60
2022-08-26T01:52:28.101Z,71.20
2022-08-26T01:54:57.077Z,70.60
2022-08-26T01:57:24.705Z,70.60
2022-08-26T01:59:55.361Z,70.40
2022-08-26T02:02:24.560Z,70.60
2022-08-26T02:04:59.669Z,70.20
2022-08-26T02:07:27.664Z,70.10
2022-08-26T02:09:54.749Z,70.20
2022-08-26T02:12:22.302Z,69.90
2022-08-26T02:14:55.436Z,70.00
2022-08-26T02:17:29.190Z,69.70
2022-08-26T02:19:57.077Z,70.00
2022-08-26T02:22:24.481Z,70.00
2022-08-26T02:24:57.753Z,69.90
2022-08-26T02:27:32.002Z,70.00
2022-08-26T02:30:06.053Z,70.00
2022-08-26T02:32:33.019Z,70.60
2022-08-26T02:35:01.753Z,70.40
2022-08-26T02:37:30.627Z,70.80
2022-08-26T02:39:57.534Z,70.70
2022-08-26T02:42:24.247Z,70.80
2022-08-26T02:44:52.000Z,71.30
2022-08-26T02:47:18.778Z,70.80
2022-08-26T02:49:47.282Z,70.80
2022-08-26T02:52:14.548Z,70.60
2022-08-26T02:54:41.481Z,70.60
2022-08-26T02:57:09.037Z,70.30
2022-08-26T02:59:36.078Z,70.70
2022-08-26T03:02:03.217Z,70.70
2022-08-26T03:04:30.417Z,70.50
2022-08-26T03:07:00.274Z,70.00
2022-08-26T03:09:27.489Z,70.80
2022-08-26T03:11:55.477Z,70.80
2022-08-26T03:14:23.960Z,71.30
2022-08-26T03:16:52.343Z,70.90
2022-08-26T03:19:19.112Z,70.50
2022-08-26T03:21:47.363Z,70.90
2022-08-26T03:24:14.977Z,71.00
2022-08-26T03:26:52.001Z,70.90
2022-08-26T03:29:38.455Z,70.90
2022-08-26T03:32:06.149Z,70.20
2022-08-26T03:34:33.331Z,69.90
2022-08-26T03:37:00.150Z,70.30
2022-08-26T03:39:31.604Z,70.80
2022-08-26T03:41:59.404Z,70.90
2022-08-26T03:44:26.669Z,70.80
2022-08-26T03:46:54.512Z,70.90
2022-08-26T03:49:21.906Z,71.00
2022-08-26T03:51:48.649Z,71.20
2022-08-26T03:54:17.053Z,70.90
2022-08-26T03:56:43.741Z,70.90
2022-08-26T03:59:13.351Z,71.90
2022-08-26T04:01:40.150Z,71.70
2022-08-26T04:04:06.929Z,71.40
2022-08-26T04:06:39.831Z,71.30
2022-08-26T04:09:11.086Z,71.10
2022-08-26T04:11:39.615Z,71.30
2022-08-26T04:14:11.220Z,70.80
2022-08-26T04:16:38.874Z,70.30
2022-08-26T04:19:06.535Z,70.50
2022-08-26T04:21:34.549Z,70.90
2022-08-26T04:24:03.494Z,72.00
2022-08-26T04:26:36.896Z,71.50
2022-08-26T04:29:32.564Z,71.50
2022-08-26T04:31:59.795Z,71.90
2022-08-26T04:34:29.011Z,71.70
2022-08-26T04:36:57.627Z,71.60
2022-08-26T04:39:25.267Z,71.60
2022-08-26T04:41:54.708Z,71.60
2022-08-26T04:44:22.640Z,71.00
2022-08-26T04:46:50.964Z,70.80
2022-08-26T04:49:17.729Z,70.40
2022-08-26T04:51:45.271Z,70.20
2022-08-26T04:54:12.128Z,70.50
2022-08-26T04:56:41.682Z,71.20
2022-08-26T04:59:16.981Z,71.50
2022-08-26T05:01:51.171Z,71.30
2022-08-26T05:04:19.796Z,71.40
2022-08-26T05:06:48.237Z,71.40
2022-08-26T05:09:15.635Z,70.70
2022-08-26T05:11:42.789Z,71.50
2022-08-26T05:14:10.001Z,70.60
2022-08-26T05:16:37.658Z,70.40
2022-08-26T05:19:08.413Z,70.20
2022-08-26T05:21:35.654Z,70.20
2022-08-26T05:24:02.501Z,70.00
2022-08-26T05:26:31.411Z,69.80
2022-08-26T05:28:58.562Z,69.60
2022-08-26T05:31:28.978Z,69.60
2022-08-26T05:33:57.430Z,69.40
2022-08-26T05:36:27.165Z,69.20
2022-08-26T05:38:56.342Z,69.20
2022-08-26T05:41:36.112Z,68.70
2022-08-26T05:44:05.874Z,68.60
2022-08-26T05:46:33.289Z,68.60
2022-08-26T05:49:01.499Z,68.60
2022-08-26T05:51:30.434Z,68.30
2022-08-26T05:53:58.313Z,68.30
2022-08-26T05:56:27.380Z,67.70
2022-08-26T05:58:55.658Z,67.10
2022-08-26T06:01:28.012Z,67.00
2022-08-26T06:03:59.683Z,66.90
2022-08-26T06:06:34.624Z,66.20
2022-08-26T06:09:04.385Z,66.40
2022-08-26T06:11:32.889Z,65.90
2022-08-26T06:14:04.089Z,65.40
2022-08-26T06:16:33.450Z,65.20
2022-08-26T06:19:02.829Z,65.00
2022-08-26T06:21:34.797Z,64.60
2022-08-26T06:24:26.957Z,63.90
2022-08-26T06:27:03.332Z,63.50
2022-08-26T06:29:36.163Z,63.90
2022-08-26T06:32:05.161Z,63.80
2022-08-26T06:34:32.666Z,63.00
2022-08-26T06:37:02.722Z,63.40
2022-08-26T06:39:31.210Z,63.30
2022-08-26T06:41:59.301Z,63.50
2022-08-26T06:44:26.737Z,62.90
2022-08-26T06:46:53.756Z,62.90
2022-08-26T06:49:25.833Z,63.30
2022-08-26T06:51:58.099Z,62.50
2022-08-26T06:54:25.592Z,63.60
2022-08-26T06:56:52.322Z,63.30
2022-08-26T06:59:19.006Z,62.90
2022-08-26T07:01:46.601Z,62.70
2022-08-26T07:04:21.961Z,62.80
2022-08-26T07:06:52.929Z,62.50
2022-08-26T07:09:22.465Z,62.90
2022-08-26T07:11:49.702Z,62.50
2022-08-26T07:14:21.213Z,63.20
2022-08-26T07:16:49.791Z,62.70
2022-08-26T07:19:29.093Z,62.40
2022-08-26T07:22:03.427Z,62.30
2022-08-26T07:24:31.124Z,62.90
2022-08-26T07:27:01.062Z,61.80
2022-08-26T07:29:29.181Z,62.20
2022-08-26T07:31:56.347Z,62.10
2022-08-26T07:34:24.035Z,61.80
2022-08-26T07:36:51.570Z,60.80
2022-08-26T07:39:19.451Z,60.90
2022-08-26T07:41:47.298Z,62.10
2022-08-26T07:44:14.876Z,56.80
2022-08-26T07:46:42.185Z,58.60
2022-08-26T07:49:11.608Z,58.70
2022-08-26T07:51:39.652Z,53.20
2022-08-26T07:54:07.166Z,52.20
2022-08-26T07:56:34.125Z,51.30
2022-08-26T07:59:01.607Z,50.90
2022-08-26T08:01:31.373Z,51.90
2022-08-26T08:04:00.349Z,51.20
2022-08-26T08:06:29.192Z,52.10
2022-08-26T08:08:57.033Z,51.40
2022-08-26T08:11:25.025Z,52.00
2022-08-26T08:13:56.132Z,52.30
2022-08-26T08:16:28.215Z,51.60
2022-08-26T08:18:59.221Z,49.80
2022-08-26T08:21:30.256Z,49.60
2022-08-26T08:23:57.895Z,49.50
2022-08-26T08:26:26.096Z,51.40
2022-08-26T08:28:57.168Z,50.20
2022-08-26T08:31:55.987Z,50.00
2022-08-26T08:34:15.099Z,50.00
2022-08-26T08:36:42.032Z,49.70
2022-08-26T08:39:09.417Z,49.00
2022-08-26T08:42:05.949Z,50.00
2022-08-26T08:44:33.631Z,50.20
2022-08-26T08:47:07.573Z,50.70
2022-08-26T08:49:34.792Z,49.70
2022-08-26T08:52:31.122Z,49.90
2022-08-26T08:54:58.202Z,50.90
2022-08-26T08:58:05.322Z,50.50
2022-08-26T09:00:42.485Z,51.10
2022-08-26T09:03:40.185Z,51.10
2022-08-26T09:06:16.949Z,51.70
2022-08-26T09:08:46.821Z,52.30
2022-08-26T09:11:19.084Z,51.90
2022-08-26T09:13:51.983Z,51.20
2022-08-26T09:16:25.202Z,51.40
2022-08-26T09:18:54.921Z,53.30
2022-08-26T09:21:23.921Z,52.20
2022-08-26T09:23:55.826Z,51.70
2022-08-26T09:26:30.594Z,52.10
2022-08-26T09:29:10.349Z,53.00
2022-08-26T09:31:39.101Z,52.50
2022-08-26T09:34:22.990Z,54.30
2022-08-26T09:36:56.759Z,54.10
2022-08-26T09:39:33.121Z,52.50
2022-08-26T09:42:22.506Z,52.40
2022-08-26T09:44:56.810Z,52.30
2022-08-26T09:47:30.546Z,54.00
2022-08-26T09:50:23.417Z,53.00
2022-08-26T09:53:21.034Z,51.40
2022-08-26T09:56:12.627Z,50.00
2022-08-26T09:58:41.917Z,50.80
2022-08-26T10:01:25.272Z,50.60
2022-08-26T10:03:52.379Z,50.20
2022-08-26T10:06:24.365Z,50.80
2022-08-26T10:08:57.294Z,49.90
2022-08-26T10:11:50.417Z,49.30
2022-08-26T10:14:20.156Z,49.70
2022-08-26T10:17:05.400Z,49.00
2022-08-26T10:19:59.450Z,49.90
2022-08-26T10:22:36.367Z,48.60
2022-08-26T10:25:07.996Z,48.10
2022-08-26T10:27:49.733Z,47.20
2022-08-26T10:30:23.159Z,47.40
2022-08-26T10:33:03.430Z,47.70
2022-08-26T10:35:31.649Z,47.20
2022-08-26T10:38:04.645Z,49.60
2022-08-26T10:41:00.755Z,48.00
2022-08-26T10:43:36.877Z,47.70
2022-08-26T10:46:16.270Z,48.00
2022-08-26T10:48:53.518Z,47.80
2022-08-26T10:51:27.076Z,46.70
2022-08-26T10:54:12.009Z,47.60
2022-08-26T10:56:58.682Z,46.80
2022-08-26T10:59:47.998Z,47.70
2022-08-26T11:02:47.182Z,46.10
2022-08-26T11:05:23.418Z,46.30
2022-08-26T11:08:11.181Z,46.20
2022-08-26T11:10:38.361Z,46.90
2022-08-26T11:13:06.863Z,46.40
2022-08-26T11:15:36.777Z,46.20
2022-08-26T11:18:08.883Z,48.00
2022-08-26T11:20:42.263Z,46.50
2022-08-26T11:23:24.185Z,47.10
2022-08-26T11:26:09.055Z,47.90
2022-08-26T11:28:44.100Z,47.90
2022-08-26T11:31:26.827Z,47.10
2022-08-26T11:36:59.162Z,45.00
2022-08-26T11:39:54.475Z,46.30
2022-08-26T11:42:42.725Z,46.70
2022-08-26T11:45:22.545Z,44.70
2022-08-26T11:47:50.467Z,45.80
2022-08-26T11:50:19.478Z,44.80
2022-08-26T11:53:01.828Z,44.90
2022-08-26T11:55:34.733Z,45.10
2022-08-26T11:58:04.830Z,46.00
2022-08-26T12:00:46.436Z,45.10
2022-08-26T12:03:19.362Z,43.90
2022-08-26T12:05:49.096Z,43.60
2022-08-26T12:08:27.919Z,43.30
2022-08-26T12:11:10.894Z,42.60
2022-08-26T12:13:39.521Z,41.50
2022-08-26T12:16:07.778Z,42.70
2022-08-26T12:18:37.527Z,44.80
2022-08-26T12:21:19.671Z,43.80
2022-08-26T12:23:50.093Z,44.30
2022-08-26T12:26:36.894Z,44.30
2022-08-26T12:29:18.090Z,44.60
2022-08-26T12:31:47.951Z,43.40
2022-08-26T12:34:18.029Z,41.80
2022-08-26T12:36:50.714Z,42.80
2022-08-26T12:39:30.360Z,41.70
2022-08-26T12:42:00.045Z,41.40
2022-08-26T12:44:33.325Z,40.90
2022-08-26T12:47:42.714Z,40.50
2022-08-26T12:50:23.683Z,40.90
2022-08-26T12:53:02.875Z,40.30
2022-08-26T12:55:32.661Z,40.00
2022-08-26T12:58:31.617Z,38.70
2022-08-26T13:01:04.477Z,40.70
2022-08-26T13:03:34.376Z,41.70
2022-08-26T13:06:22.965Z,43.50
2022-08-26T13:08:53.009Z,43.40
2022-08-26T13:11:27.239Z,41.30
2022-08-26T13:14:06.787Z,41.30
2022-08-26T13:16:35.059Z,41.40
2022-08-26T13:19:11.204Z,41.10
2022-08-26T13:21:43.828Z,39.60
2022-08-26T13:24:14.459Z,41.20
2022-08-26T13:26:43.045Z,39.60
2022-08-26T13:29:10.763Z,39.80
2022-08-26T13:31:40.200Z,40.30
2022-08-26T13:34:09.367Z,41.60
2022-08-26T13:36:36.171Z,41.40
2022-08-26T13:39:03.666Z,40.60
2022-08-26T13:41:31.878Z,41.90
2022-08-26T13:43:59.462Z,39.90
2022-08-26T13:46:28.021Z,38.80
2022-08-26T13:48:56.178Z,39.50
2022-08-26T13:51:23.428Z,39.90
2022-08-26T13:53:51.105Z,39.70
2022-08-26T13:56:18.883Z,38.40
2022-08-26T13:58:49.488Z,39.10
2022-08-26T14:01:19.157Z,39.30
2022-08-26T14:03:47.034Z,38.10
2022-08-26T14:06:13.852Z,40.00
2022-08-26T14:08:41.391Z,41.30
2022-08-26T14:11:08.255Z,40.80
2022-08-26T14:13:36.131Z,38.40
2022-08-26T14:16:07.427Z,39.30
2022-08-26T14:18:42.477Z,40.40
2022-08-26T14:21:12.960Z,38.90
2022-08-26T14:23:40.167Z,38.20
2022-08-26T14:26:10.930Z,39.30
2022-08-26T14:28:55.197Z,39.20
2022-08-26T14:31:26.742Z,39.70
2022-08-26T14:33:53.633Z,40.00
2022-08-26T14:36:29.273Z,38.50
2022-08-26T14:38:58.140Z,38.90
2022-08-26T14:41:25.423Z,40.80
2022-08-26T14:43:59.943Z,40.30
2022-08-26T14:46:30.156Z,39.70
2022-08-26T14:49:01.785Z,40.30
2022-08-26T14:51:29.915Z,38.30
2022-08-26T14:54:11.748Z,38.50
2022-08-26T14:56:45.938Z,38.70
2022-08-26T14:59:14.718Z,37.20
2022-08-26T15:01:41.598Z,37.30
2022-08-26T15:04:08.492Z,37.60
2022-08-26T15:06:36.142Z,38.60
2022-08-26T15:09:04.128Z,40.60
2022-08-26T15:11:30.883Z,41.30
2022-08-26T15:13:57.652Z,42.30
2022-08-26T15:16:24.561Z,42.10
2022-08-26T15:18:51.675Z,43.30
2022-08-26T15:21:19.857Z,42.00
2022-08-26T15:23:48.103Z,42.30
2022-08-26T15:26:16.229Z,40.80
2022-08-26T15:28:43.274Z,40.50
2022-08-26T15:31:10.144Z,42.00
2022-08-26T15:33:38.202Z,42.10
2022-08-26T15:36:07.162Z,43.40
2022-08-26T15:38:37.454Z,44.50
2022-08-26T15:41:06.093Z,44.20
2022-08-26T15:43:32.965Z,43.00
2022-08-26T15:45:59.864Z,39.20
2022-08-26T15:48:27.303Z,37.60
2022-08-26T15:50:56.768Z,36.40
2022-08-26T15:53:24.658Z,35.70
2022-08-26T15:55:54.219Z,36.10
2022-08-26T15:58:21.982Z,36.10
2022-08-26T16:00:48.665Z,37.30
2022-08-26T16:03:15.480Z,37.30
2022-08-26T16:05:46.209Z,36.30
2022-08-26T16:08:14.217Z,35.00
2022-08-26T16:10:49.227Z,36.10
2022-08-26T16:13:17.510Z,35.50
2022-08-26T16:15:44.451Z,36.80
2022-08-26T16:18:11.409Z,37.30
2022-08-26T16:20:55.268Z,36.40
2022-08-26T16:23:36.200Z,36.30
2022-08-26T16:26:10.494Z,36.60
2022-08-26T16:28:38.263Z,36.80
2022-08-26T16:31:06.431Z,37.80
2022-08-26T16:33:33.215Z,38.40
2022-08-26T16:35:59.914Z,38.30
2022-08-26T16:38:26.775Z,37.70
2022-08-26T16:40:53.457Z,38.00
2022-08-26T16:43:20.182Z,38.60
2022-08-26T16:45:46.878Z,39.60
2022-08-26T16:48:13.648Z,40.00
2022-08-26T16:50:41.847Z,40.10
2022-08-26T16:53:16.004Z,40.80
2022-08-26T16:55:50.143Z,41.40
2022-08-26T16:58:18.418Z,42.20
2022-08-26T17:00:45.342Z,43.10
2022-08-26T17:03:12.276Z,43.70
2022-08-26T17:05:40.246Z,45.20
2022-08-26T17:08:07.132Z,46.10
2022-08-26T17:10:34.053Z,46.70
2022-08-26T17:13:01.079Z,47.00
2022-08-26T17:15:28.347Z,48.00
2022-08-26T17:17:56.576Z,49.10
2022-08-26T17:20:24.515Z,49.40
2022-08-26T17:22:53.937Z,51.10
2022-08-26T17:25:29.585Z,52.30
2022-08-26T17:30:30.798Z,52.50
2022-08-26T17:32:57.915Z,52.70
2022-08-26T17:35:25.171Z,53.20
2022-08-26T17:37:52.681Z,53.30
2022-08-26T17:40:22.145Z,53.10
2022-08-26T17:42:49.610Z,53.80
2022-08-26T17:45:16.981Z,53.90
2022-08-26T17:47:44.832Z,53.90
2022-08-26T17:50:14.921Z,54.10
2022-08-26T17:52:41.994Z,54.50
2022-08-26T17:55:11.536Z,54.30
2022-08-26T17:57:40.921Z,54.80
2022-08-26T18:00:13.556Z,55.00
2022-08-26T18:02:40.686Z,55.20
2022-08-26T18:05:09.643Z,55.10
2022-08-26T18:07:43.679Z,54.80
2022-08-26T18:10:13.725Z,54.90
2022-08-26T18:12:41.593Z,55.60
2022-08-26T18:15:11.773Z,56.50
2022-08-26T18:17:41.734Z,56.80
2022-08-26T18:20:18.766Z,57.30
2022-08-26T18:22:47.532Z,57.80
2022-08-26T18:25:15.296Z,57.90
2022-08-26T18:27:43.722Z,57.90
2022-08-26T18:30:16.615Z,57.90
2022-08-26T18:32:44.186Z,58.00
2022-08-26T18:35:11.764Z,58.20
2022-08-26T18:37:38.656Z,57.70
2022-08-26T18:40:07.616Z,57.80
2022-08-26T18:42:34.807Z,57.60
2022-08-26T18:45:02.173Z,57.70
2022-08-26T18:47:30.019Z,57.70
2022-08-26T18:49:56.762Z,57.70
2022-08-26T18:52:23.556Z,57.90
2022-08-26T18:54:50.931Z,58.00
2022-08-26T18:57:17.676Z,58.00
2022-08-26T18:59:44.748Z,58.60
2022-08-26T19:02:11.678Z,58.40
2022-08-26T19:04:38.554Z,58.50
2022-08-26T19:07:05.900Z,58.90
2022-08-26T19:09:33.213Z,58.80
2022-08-26T19:12:01.765Z,59.40
2022-08-26T19:14:29.040Z,59.60
2022-08-26T19:16:55.904Z,59.90
2022-08-26T19:19:25.806Z,59.90
2022-08-26T19:21:53.229Z,60.20
2022-08-26T19:24:20.836Z,60.60
2022-08-26T19:26:51.341Z,60.50
2022-08-26T19:29:26.891Z,60.80
2022-08-26T19:31:53.830Z,60.70
2022-08-26T19:34:21.010Z,60.40
2022-08-26T19:36:48.386Z,60.30
2022-08-26T19:39:15.342Z,60.80
2022-08-26T19:41:42.176Z,60.60
2022-08-26T19:44:12.824Z,61.20
2022-08-26T19:46:39.757Z,61.40
2022-08-26T19:49:06.797Z,61.50
2022-08-26T19:51:34.856Z,62.00
2022-08-26T19:54:02.322Z,62.30
2022-08-26T19:56:29.416Z,62.70
2022-08-26T19:58:56.448Z,62.80
2022-08-26T20:01:23.863Z,62.70
2022-08-26T20:03:50.803Z,62.90
2022-08-26T20:06:18.513Z,63.00
2022-08-26T20:08:46.076Z,62.80
2022-08-26T20:11:15.747Z,63.10
2022-08-26T20:13:44.606Z,63.50
2022-08-26T20:16:12.243Z,63.80
2022-08-26T20:19:02.342Z,64.00
2022-08-26T20:21:33.056Z,64.10
2022-08-26T20:24:01.969Z,63.80
2022-08-26T20:26:30.902Z,64.10
2022-08-26T20:28:57.745Z,64.50
2022-08-26T20:31:26.088Z,64.40
2022-08-26T20:33:53.494Z,64.90
2022-08-26T20:36:22.542Z,65.10
2022-08-26T20:38:50.255Z,65.00
2022-08-26T20:41:17.548Z,65.10
2022-08-26T20:43:46.109Z,65.40
2022-08-26T20:46:18.122Z,65.40
2022-08-26T20:48:47.227Z,65.30
2022-08-26T20:51:15.272Z,64.70
2022-08-26T20:53:42.045Z,64.70
2022-08-26T20:56:10.837Z,65.30
2022-08-26T20:58:38.368Z,66.20
2022-08-26T21:01:07.987Z,67.20
2022-08-26T21:03:36.267Z,68.70
2022-08-26T21:06:03.744Z,69.30
2022-08-26T21:08:33.150Z,70.00
2022-08-26T21:11:00.808Z,69.40
2022-08-26T21:13:35.780Z,69.00
2022-08-26T21:16:10.128Z,69.00
2022-08-26T21:18:36.955Z,69.00
2022-08-26T21:21:05.821Z,69.50
2022-08-26T21:23:32.617Z,70.50
2022-08-26T21:26:04.602Z,71.40
2022-08-26T21:28:31.340Z,71.40
2022-08-26T21:30:58.110Z,71.40
2022-08-26T21:33:24.843Z,71.60
2022-08-26T21:35:55.745Z,71.80
2022-08-26T21:38:22.584Z,71.80
2022-08-26T21:41:00.493Z,71.20
2022-08-26T21:43:34.819Z,72.60
2022-08-26T21:46:11.346Z,73.40
2022-08-26T21:48:45.713Z,74.70
2022-08-26T21:51:17.731Z,74.60
2022-08-26T21:53:44.700Z,75.40
2022-08-26T21:56:14.502Z,75.70
2022-08-26T21:58:42.000Z,74.10
2022-08-26T22:01:14.589Z,75.30
2022-08-26T22:03:47.525Z,76.00
2022-08-26T22:06:20.023Z,76.10
2022-08-26T22:08:47.091Z,76.60
2022-08-26T22:11:14.395Z,77.30
2022-08-26T22:13:42.289Z,76.90
2022-08-26T22:16:10.034Z,76.30
2022-08-26T22:18:37.640Z,76.40
2022-08-26T22:21:08.673Z,74.20
2022-08-26T22:23:37.625Z,73.80
2022-08-26T22:26:06.271Z,75.30
2022-08-26T22:28:33.290Z,76.00
2022-08-26T22:31:00.420Z,76.30
2022-08-26T22:33:27.588Z,77.20
2022-08-26T22:35:54.441Z,78.50
2022-08-26T22:38:23.725Z,79.10
2022-08-26T22:40:56.476Z,80.20
2022-08-26T22:43:28.707Z,81.40
2022-08-26T22:45:56.149Z,80.50
2022-08-26T22:48:26.400Z,81.80
2022-08-26T22:51:00.048Z,82.40
2022-08-26T22:53:27.204Z,82.60
2022-08-26T22:55:54.341Z,83.60
2022-08-26T22:58:21.585Z,83.70
2022-08-26T23:00:57.680Z,83.50
2022-08-26T23:03:26.318Z,83.80
2022-08-26T23:05:53.083Z,82.70
2022-08-26T23:08:20.379Z,82.10
2022-08-26T23:10:48.201Z,80.90
2022-08-26T23:13:15.685Z,80.70
2022-08-26T23:15:43.219Z,80.50
2022-08-26T23:18:10.306Z,80.50
2022-08-26T23:20:38.218Z,80.30
2022-08-26T23:23:05.207Z,80.10
2022-08-26T23:25:33.068Z,79.40
2022-08-26T23:28:01.076Z,79.10
2022-08-26T23:30:29.786Z,78.20
2022-08-26T23:32:56.532Z,79.60
2022-08-26T23:35:24.471Z,78.50
2022-08-26T23:37:52.969Z,78.30
2022-08-26T23:40:27.231Z,79.00
2022-08-26T23:42:55.942Z,78.80
2022-08-26T23:45:24.436Z,79.50
2022-08-26T23:47:51.545Z,79.20
2022-08-26T23:50:20.748Z,78.60
2022-08-26T23:53:06.380Z,78.40
2022-08-26T23:55:38.250Z,78.10
2022-08-26T23:58:05.895Z,78.60
